sensor_id;sensor_type;location;lat;lon;timestamp;pressure;altitude;pressure_sealevel;temperature
70415;BMP280;57837;52.064;113.478;2022-11-06T00:01:42;93975.44;;;-0.53
70415;BMP280;57837;52.064;113.478;2022-11-06T00:04:45;93977.31;;;-0.47
70415;BMP280;57837;52.064;113.478;2022-11-06T00:07:49;93972.16;;;-0.20
70415;BMP280;57837;52.064;113.478;2022-11-06T00:10:52;93986.84;;;0.00
70415;BMP280;57837;52.064;113.478;2022-11-06T00:13:57;93980.19;;;0.40
70415;BMP280;57837;52.064;113.478;2022-11-06T00:17:00;93984.78;;;0.75
70415;BMP280;57837;52.064;113.478;2022-11-06T00:20:05;93981.63;;;0.99
70415;BMP280;57837;52.064;113.478;2022-11-06T00:23:09;93992.25;;;1.23
70415;BMP280;57837;52.064;113.478;2022-11-06T00:26:15;93983.22;;;1.68
70415;BMP280;57837;52.064;113.478;2022-11-06T00:29:19;93985.44;;;1.87
70415;BMP280;57837;52.064;113.478;2022-11-06T00:32:23;93993.09;;;2.19
70415;BMP280;57837;52.064;113.478;2022-11-06T00:35:26;93991.97;;;2.45
70415;BMP280;57837;52.064;113.478;2022-11-06T00:38:30;93997.34;;;2.75
70415;BMP280;57837;52.064;113.478;2022-11-06T00:41:34;93992.59;;;2.77
70415;BMP280;57837;52.064;113.478;2022-11-06T00:44:38;93996.66;;;2.64
70415;BMP280;57837;52.064;113.478;2022-11-06T00:47:41;93995.88;;;2.78
70415;BMP280;57837;52.064;113.478;2022-11-06T00:50:45;93998.56;;;3.37
70415;BMP280;57837;52.064;113.478;2022-11-06T00:53:56;94005.63;;;3.77
70415;BMP280;57837;52.064;113.478;2022-11-06T00:57:01;94005.81;;;4.01
70415;BMP280;57837;52.064;113.478;2022-11-06T01:00:05;94007.94;;;4.09
70415;BMP280;57837;52.064;113.478;2022-11-06T01:03:09;94013.22;;;3.88
70415;BMP280;57837;52.064;113.478;2022-11-06T01:06:17;94012.50;;;3.84
70415;BMP280;57837;52.064;113.478;2022-11-06T01:09:25;94016.44;;;3.99
70415;BMP280;57837;52.064;113.478;2022-11-06T01:12:33;94012.19;;;4.27
70415;BMP280;57837;52.064;113.478;2022-11-06T01:15:37;94023.56;;;4.63
70415;BMP280;57837;52.064;113.478;2022-11-06T01:18:42;94027.44;;;4.75
70415;BMP280;57837;52.064;113.478;2022-11-06T01:21:48;94028.59;;;4.70
70415;BMP280;57837;52.064;113.478;2022-11-06T01:24:52;94023.72;;;4.79
70415;BMP280;57837;52.064;113.478;2022-11-06T01:27:55;94013.69;;;5.22
70415;BMP280;57837;52.064;113.478;2022-11-06T01:31:13;94023.56;;;5.51
70415;BMP280;57837;52.064;113.478;2022-11-06T01:34:17;94021.19;;;5.40
70415;BMP280;57837;52.064;113.478;2022-11-06T01:37:20;94020.13;;;5.07
70415;BMP280;57837;52.064;113.478;2022-11-06T01:40:24;94009.41;;;4.85
70415;BMP280;57837;52.064;113.478;2022-11-06T01:43:52;94016.06;;;5.10
70415;BMP280;57837;52.064;113.478;2022-11-06T01:47:04;94019.72;;;5.39
70415;BMP280;57837;52.064;113.478;2022-11-06T01:50:11;94017.59;;;5.34
70415;BMP280;57837;52.064;113.478;2022-11-06T01:53:14;94019.38;;;5.37
70415;BMP280;57837;52.064;113.478;2022-11-06T01:56:18;94020.09;;;5.38
70415;BMP280;57837;52.064;113.478;2022-11-06T01:59:24;94007.00;;;5.28
70415;BMP280;57837;52.064;113.478;2022-11-06T02:02:29;94004.78;;;5.30
70415;BMP280;57837;52.064;113.478;2022-11-06T02:05:32;94002.09;;;5.41
70415;BMP280;57837;52.064;113.478;2022-11-06T02:08:36;94008.03;;;5.61
70415;BMP280;57837;52.064;113.478;2022-11-06T02:11:49;94007.97;;;5.65
70415;BMP280;57837;52.064;113.478;2022-11-06T02:15:11;94007.94;;;5.68
70415;BMP280;57837;52.064;113.478;2022-11-06T02:21:52;94006.94;;;5.86
70415;BMP280;57837;52.064;113.478;2022-11-06T02:31:28;94003.69;;;6.48
70415;BMP280;57837;52.064;113.478;2022-11-06T02:34:34;94004.53;;;6.61
70415;BMP280;57837;52.064;113.478;2022-11-06T02:37:41;94005.44;;;6.71
70415;BMP280;57837;52.064;113.478;2022-11-06T02:40:58;94004.09;;;7.02
70415;BMP280;57837;52.064;113.478;2022-11-06T02:44:05;94003.59;;;6.91
70415;BMP280;57837;52.064;113.478;2022-11-06T02:47:12;94002.91;;;6.87
70415;BMP280;57837;52.064;113.478;2022-11-06T02:50:21;93999.78;;;6.60
70415;BMP280;57837;52.064;113.478;2022-11-06T02:53:26;94003.16;;;6.76
70415;BMP280;57837;52.064;113.478;2022-11-06T02:56:36;93999.94;;;6.53
70415;BMP280;57837;52.064;113.478;2022-11-06T02:59:49;93996.59;;;6.56
70415;BMP280;57837;52.064;113.478;2022-11-06T03:06:11;93988.88;;;6.92
70415;BMP280;57837;52.064;113.478;2022-11-06T03:09:23;93990.84;;;6.84
70415;BMP280;57837;52.064;113.478;2022-11-06T03:12:55;93985.75;;;7.00
70415;BMP280;57837;52.064;113.478;2022-11-06T03:16:07;93979.94;;;6.96
70415;BMP280;57837;52.064;113.478;2022-11-06T03:22:55;93981.44;;;6.77
70415;BMP280;57837;52.064;113.478;2022-11-06T03:29:36;93975.31;;;6.71
70415;BMP280;57837;52.064;113.478;2022-11-06T03:32:48;93975.63;;;6.73
70415;BMP280;57837;52.064;113.478;2022-11-06T03:36:07;93971.75;;;6.45
70415;BMP280;57837;52.064;113.478;2022-11-06T03:39:27;93966.41;;;6.36
70415;BMP280;57837;52.064;113.478;2022-11-06T03:42:32;93974.63;;;6.51
70415;BMP280;57837;52.064;113.478;2022-11-06T03:45:38;93979.19;;;6.60
70415;BMP280;57837;52.064;113.478;2022-11-06T03:48:56;93967.84;;;6.57
70415;BMP280;57837;52.064;113.478;2022-11-06T03:52:16;93970.97;;;6.68
70415;BMP280;57837;52.064;113.478;2022-11-06T03:55:27;93967.47;;;6.39
70415;BMP280;57837;52.064;113.478;2022-11-06T03:58:38;93969.94;;;6.26
70415;BMP280;57837;52.064;113.478;2022-11-06T04:01:45;93959.38;;;6.21
70415;BMP280;57837;52.064;113.478;2022-11-06T04:04:54;93960.78;;;6.25
70415;BMP280;57837;52.064;113.478;2022-11-06T04:07:59;93950.28;;;6.16
70415;BMP280;57837;52.064;113.478;2022-11-06T04:11:43;93953.16;;;6.18
70415;BMP280;57837;52.064;113.478;2022-11-06T04:15:09;93951.78;;;6.14
70415;BMP280;57837;52.064;113.478;2022-11-06T04:18:18;93947.63;;;6.20
70415;BMP280;57837;52.064;113.478;2022-11-06T04:28:33;93931.81;;;6.21
70415;BMP280;57837;52.064;113.478;2022-11-06T04:42:17;93920.53;;;5.95
70415;BMP280;57837;52.064;113.478;2022-11-06T04:45:32;93919.59;;;6.05
70415;BMP280;57837;52.064;113.478;2022-11-06T04:48:38;93915.13;;;6.10
70415;BMP280;57837;52.064;113.478;2022-11-06T04:51:43;93913.88;;;6.18
70415;BMP280;57837;52.064;113.478;2022-11-06T04:54:48;93917.59;;;5.97
70415;BMP280;57837;52.064;113.478;2022-11-06T04:57:51;93914.34;;;5.93
70415;BMP280;57837;52.064;113.478;2022-11-06T05:00:56;93906.63;;;5.93
70415;BMP280;57837;52.064;113.478;2022-11-06T05:03:59;93901.97;;;5.88
70415;BMP280;57837;52.064;113.478;2022-11-06T05:07:03;93904.66;;;5.57
70415;BMP280;57837;52.064;113.478;2022-11-06T05:10:08;93894.19;;;5.72
70415;BMP280;57837;52.064;113.478;2022-11-06T05:13:13;93893.34;;;5.75
70415;BMP280;57837;52.064;113.478;2022-11-06T05:16:17;93889.47;;;5.66
70415;BMP280;57837;52.064;113.478;2022-11-06T05:19:21;93898.00;;;5.83
70415;BMP280;57837;52.064;113.478;2022-11-06T05:22:24;93886.38;;;5.98
70415;BMP280;57837;52.064;113.478;2022-11-06T05:25:46;93890.97;;;5.87
70415;BMP280;57837;52.064;113.478;2022-11-06T05:28:50;93892.22;;;5.76
70415;BMP280;57837;52.064;113.478;2022-11-06T05:31:53;93880.28;;;5.69
70415;BMP280;57837;52.064;113.478;2022-11-06T05:35:06;93889.63;;;5.79
70415;BMP280;57837;52.064;113.478;2022-11-06T05:38:09;93885.09;;;6.06
70415;BMP280;57837;52.064;113.478;2022-11-06T05:41:14;93889.03;;;6.31
70415;BMP280;57837;52.064;113.478;2022-11-06T05:44:17;93891.84;;;6.56
70415;BMP280;57837;52.064;113.478;2022-11-06T05:47:21;93884.56;;;6.55
70415;BMP280;57837;52.064;113.478;2022-11-06T05:50:25;93881.38;;;6.47
70415;BMP280;57837;52.064;113.478;2022-11-06T05:53:33;93880.22;;;6.68
70415;BMP280;57837;52.064;113.478;2022-11-06T05:56:38;93885.69;;;6.70
70415;BMP280;57837;52.064;113.478;2022-11-06T05:59:41;93875.47;;;6.66
70415;BMP280;57837;52.064;113.478;2022-11-06T06:02:46;93863.19;;;6.74
70415;BMP280;57837;52.064;113.478;2022-11-06T06:05:50;93876.56;;;7.17
70415;BMP280;57837;52.064;113.478;2022-11-06T06:08:54;93874.00;;;7.46
70415;BMP280;57837;52.064;113.478;2022-11-06T06:11:57;93878.22;;;7.24
70415;BMP280;57837;52.064;113.478;2022-11-06T06:15:01;93867.28;;;7.36
70415;BMP280;57837;52.064;113.478;2022-11-06T06:18:05;93862.56;;;7.64
70415;BMP280;57837;52.064;113.478;2022-11-06T06:21:08;93870.34;;;7.76
70415;BMP280;57837;52.064;113.478;2022-11-06T06:24:12;93875.16;;;7.74
70415;BMP280;57837;52.064;113.478;2022-11-06T06:27:15;93870.16;;;7.67
70415;BMP280;57837;52.064;113.478;2022-11-06T06:30:19;93862.56;;;7.64
70415;BMP280;57837;52.064;113.478;2022-11-06T06:33:23;93874.81;;;7.59
70415;BMP280;57837;52.064;113.478;2022-11-06T06:36:27;93869.59;;;7.47
70415;BMP280;57837;52.064;113.478;2022-11-06T06:39:30;93873.91;;;7.66
70415;BMP280;57837;52.064;113.478;2022-11-06T06:42:33;93886.34;;;7.68
70415;BMP280;57837;52.064;113.478;2022-11-06T06:45:37;93884.00;;;7.61
70415;BMP280;57837;52.064;113.478;2022-11-06T06:48:40;93889.75;;;7.19
70415;BMP280;57837;52.064;113.478;2022-11-06T06:51:43;93878.06;;;6.99
70415;BMP280;57837;52.064;113.478;2022-11-06T06:54:47;93881.91;;;6.74
70415;BMP280;57837;52.064;113.478;2022-11-06T06:57:57;93882.72;;;6.55
70415;BMP280;57837;52.064;113.478;2022-11-06T07:01:03;93880.91;;;6.32
70415;BMP280;57837;52.064;113.478;2022-11-06T07:04:09;93884.91;;;6.17
70415;BMP280;57837;52.064;113.478;2022-11-06T07:07:12;93891.97;;;6.13
70415;BMP280;57837;52.064;113.478;2022-11-06T07:10:16;93889.16;;;6.04
70415;BMP280;57837;52.064;113.478;2022-11-06T07:13:19;93892.22;;;6.19
70415;BMP280;57837;52.064;113.478;2022-11-06T07:16:22;93891.53;;;6.34
70415;BMP280;57837;52.064;113.478;2022-11-06T07:19:27;93884.69;;;6.48
70415;BMP280;57837;52.064;113.478;2022-11-06T07:22:30;93896.56;;;6.58
70415;BMP280;57837;52.064;113.478;2022-11-06T07:25:39;93900.88;;;6.64
70415;BMP280;57837;52.064;113.478;2022-11-06T07:28:42;93900.59;;;6.59
70415;BMP280;57837;52.064;113.478;2022-11-06T07:31:45;93912.38;;;6.40
70415;BMP280;57837;52.064;113.478;2022-11-06T07:34:49;93902.38;;;6.26
70415;BMP280;57837;52.064;113.478;2022-11-06T07:37:52;93910.47;;;6.24
70415;BMP280;57837;52.064;113.478;2022-11-06T07:41:00;93906.84;;;6.02
70415;BMP280;57837;52.064;113.478;2022-11-06T07:44:04;93916.81;;;6.00
70415;BMP280;57837;52.064;113.478;2022-11-06T07:47:08;93919.81;;;5.95
70415;BMP280;57837;52.064;113.478;2022-11-06T07:50:11;93923.56;;;5.90
70415;BMP280;57837;52.064;113.478;2022-11-06T07:53:15;93923.50;;;5.94
70415;BMP280;57837;52.064;113.478;2022-11-06T07:56:19;93931.22;;;5.94
70415;BMP280;57837;52.064;113.478;2022-11-06T07:59:23;93925.94;;;5.78
70415;BMP280;57837;52.064;113.478;2022-11-06T08:02:27;93931.78;;;5.58
70415;BMP280;57837;52.064;113.478;2022-11-06T08:05:31;93931.44;;;5.33
70415;BMP280;57837;52.064;113.478;2022-11-06T08:08:34;93933.78;;;5.24
70415;BMP280;57837;52.064;113.478;2022-11-06T08:11:37;93936.88;;;5.12
70415;BMP280;57837;52.064;113.478;2022-11-06T08:14:41;93932.66;;;4.98
70415;BMP280;57837;52.064;113.478;2022-11-06T08:17:44;93941.25;;;4.84
70415;BMP280;57837;52.064;113.478;2022-11-06T08:20:47;93935.19;;;4.71
70415;BMP280;57837;52.064;113.478;2022-11-06T08:23:50;93936.72;;;4.65
70415;BMP280;57837;52.064;113.478;2022-11-06T08:26:54;93932.59;;;4.41
70415;BMP280;57837;52.064;113.478;2022-11-06T08:29:58;93927.63;;;4.27
70415;BMP280;57837;52.064;113.478;2022-11-06T08:33:03;93940.53;;;4.16
70415;BMP280;57837;52.064;113.478;2022-11-06T08:36:08;93935.97;;;3.97
70415;BMP280;57837;52.064;113.478;2022-11-06T08:39:12;93934.69;;;3.78
70415;BMP280;57837;52.064;113.478;2022-11-06T08:42:15;93932.94;;;3.64
70415;BMP280;57837;52.064;113.478;2022-11-06T08:45:18;93943.28;;;3.50
70415;BMP280;57837;52.064;113.478;2022-11-06T08:48:22;93937.88;;;3.37
70415;BMP280;57837;52.064;113.478;2022-11-06T08:51:25;93941.59;;;3.29
70415;BMP280;57837;52.064;113.478;2022-11-06T08:54:29;93938.75;;;3.17
70415;BMP280;57837;52.064;113.478;2022-11-06T08:57:32;93935.88;;;3.04
70415;BMP280;57837;52.064;113.478;2022-11-06T09:00:35;93939.97;;;2.94
70415;BMP280;57837;52.064;113.478;2022-11-06T09:03:39;93934.88;;;2.91
70415;BMP280;57837;52.064;113.478;2022-11-06T09:06:43;93935.25;;;2.86
70415;BMP280;57837;52.064;113.478;2022-11-06T09:09:46;93941.50;;;2.74
70415;BMP280;57837;52.064;113.478;2022-11-06T09:12:50;93942.25;;;2.67
70415;BMP280;57837;52.064;113.478;2022-11-06T09:15:53;93944.81;;;2.64
70415;BMP280;57837;52.064;113.478;2022-11-06T09:18:58;93955.81;;;2.57
70415;BMP280;57837;52.064;113.478;2022-11-06T09:22:02;93958.00;;;2.48
70415;BMP280;57837;52.064;113.478;2022-11-06T09:25:07;93949.66;;;2.44
70415;BMP280;57837;52.064;113.478;2022-11-06T09:28:11;93954.75;;;2.40
70415;BMP280;57837;52.064;113.478;2022-11-06T09:31:15;93962.06;;;2.35
70415;BMP280;57837;52.064;113.478;2022-11-06T09:34:19;93966.81;;;2.22
70415;BMP280;57837;52.064;113.478;2022-11-06T09:37:23;93962.47;;;2.08
70415;BMP280;57837;52.064;113.478;2022-11-06T09:40:41;93959.53;;;1.99
70415;BMP280;57837;52.064;113.478;2022-11-06T09:47:30;93965.00;;;1.94
70415;BMP280;57837;52.064;113.478;2022-11-06T09:50:46;93966.13;;;1.90
70415;BMP280;57837;52.064;113.478;2022-11-06T09:54:02;93967.94;;;1.89
70415;BMP280;57837;52.064;113.478;2022-11-06T09:57:54;93962.47;;;1.87
70415;BMP280;57837;52.064;113.478;2022-11-06T10:01:04;93975.22;;;1.77
70415;BMP280;57837;52.064;113.478;2022-11-06T10:07:41;93974.88;;;1.75
70415;BMP280;57837;52.064;113.478;2022-11-06T10:11:17;93973.78;;;1.76
70415;BMP280;57837;52.064;113.478;2022-11-06T10:27:41;93992.38;;;1.83
70415;BMP280;57837;52.064;113.478;2022-11-06T10:34:32;93979.59;;;1.76
70415;BMP280;57837;52.064;113.478;2022-11-06T10:41:03;93986.16;;;1.66
70415;BMP280;57837;52.064;113.478;2022-11-06T10:44:20;93990.16;;;1.67
70415;BMP280;57837;52.064;113.478;2022-11-06T10:47:32;93991.63;;;1.68
70415;BMP280;57837;52.064;113.478;2022-11-06T10:50:49;93992.72;;;1.60
70415;BMP280;57837;52.064;113.478;2022-11-06T10:54:39;94005.78;;;1.52
70415;BMP280;57837;52.064;113.478;2022-11-06T11:00:48;94003.22;;;1.45
70415;BMP280;57837;52.064;113.478;2022-11-06T11:03:55;94001.75;;;1.44
70415;BMP280;57837;52.064;113.478;2022-11-06T11:07:14;94004.28;;;1.40
70415;BMP280;57837;52.064;113.478;2022-11-06T11:10:24;94007.94;;;1.35
70415;BMP280;57837;52.064;113.478;2022-11-06T11:13:28;94005.41;;;1.35
70415;BMP280;57837;52.064;113.478;2022-11-06T11:16:34;94006.47;;;1.34
70415;BMP280;57837;52.064;113.478;2022-11-06T11:19:40;94002.44;;;1.23
70415;BMP280;57837;52.064;113.478;2022-11-06T11:22:45;94006.41;;;1.13
70415;BMP280;57837;52.064;113.478;2022-11-06T11:25:54;94004.56;;;1.10
70415;BMP280;57837;52.064;113.478;2022-11-06T11:29:08;94006.78;;;1.08
70415;BMP280;57837;52.064;113.478;2022-11-06T11:32:15;94011.50;;;1.06
70415;BMP280;57837;52.064;113.478;2022-11-06T11:35:26;94010.75;;;1.02
70415;BMP280;57837;52.064;113.478;2022-11-06T11:38:44;94016.56;;;0.99
70415;BMP280;57837;52.064;113.478;2022-11-06T11:45:27;94023.78;;;0.90
70415;BMP280;57837;52.064;113.478;2022-11-06T11:48:59;94029.66;;;0.97
70415;BMP280;57837;52.064;113.478;2022-11-06T11:52:10;94024.19;;;0.99
70415;BMP280;57837;52.064;113.478;2022-11-06T11:55:20;94032.19;;;0.97
70415;BMP280;57837;52.064;113.478;2022-11-06T11:58:27;94025.63;;;0.93
70415;BMP280;57837;52.064;113.478;2022-11-06T12:04:41;94031.41;;;0.86
70415;BMP280;57837;52.064;113.478;2022-11-06T12:07:54;94023.75;;;0.83
70415;BMP280;57837;52.064;113.478;2022-11-06T12:11:03;94026.22;;;0.68
70415;BMP280;57837;52.064;113.478;2022-11-06T12:14:43;94031.28;;;0.65
70415;BMP280;57837;52.064;113.478;2022-11-06T12:18:12;94026.13;;;0.58
70415;BMP280;57837;52.064;113.478;2022-11-06T12:21:21;94031.94;;;0.51
70415;BMP280;57837;52.064;113.478;2022-11-06T12:24:40;94031.56;;;0.49
70415;BMP280;57837;52.064;113.478;2022-11-06T12:28:02;94032.28;;;0.50
70415;BMP280;57837;52.064;113.478;2022-11-06T12:41:25;94035.41;;;0.32
70415;BMP280;57837;52.064;113.478;2022-11-06T12:44:46;94045.25;;;0.27
70415;BMP280;57837;52.064;113.478;2022-11-06T12:47:58;94048.84;;;0.22
70415;BMP280;57837;52.064;113.478;2022-11-06T12:54:58;94051.72;;;0.21
70415;BMP280;57837;52.064;113.478;2022-11-06T13:12:15;94057.13;;;0.16
70415;BMP280;57837;52.064;113.478;2022-11-06T13:18:48;94050.97;;;0.17
70415;BMP280;57837;52.064;113.478;2022-11-06T13:22:14;94047.66;;;0.13
70415;BMP280;57837;52.064;113.478;2022-11-06T13:29:02;94050.00;;;-0.09
70415;BMP280;57837;52.064;113.478;2022-11-06T13:32:16;94058.38;;;-0.08
70415;BMP280;57837;52.064;113.478;2022-11-06T13:35:21;94065.63;;;-0.10
70415;BMP280;57837;52.064;113.478;2022-11-06T13:38:32;94055.44;;;-0.10
70415;BMP280;57837;52.064;113.478;2022-11-06T13:41:36;94059.84;;;-0.07
70415;BMP280;57837;52.064;113.478;2022-11-06T13:44:39;94052.22;;;-0.07
70415;BMP280;57837;52.064;113.478;2022-11-06T14:08:51;94069.03;;;-0.62
70415;BMP280;57837;52.064;113.478;2022-11-06T14:12:01;94075.19;;;-0.63
70415;BMP280;57837;52.064;113.478;2022-11-06T14:15:15;94073.16;;;-0.81
70415;BMP280;57837;52.064;113.478;2022-11-06T14:18:21;94076.22;;;-0.98
70415;BMP280;57837;52.064;113.478;2022-11-06T14:24:40;94081.41;;;-1.17
70415;BMP280;57837;52.064;113.478;2022-11-06T14:30:51;94094.78;;;-1.43
70415;BMP280;57837;52.064;113.478;2022-11-06T14:34:33;94096.00;;;-1.56
70415;BMP280;57837;52.064;113.478;2022-11-06T14:37:43;94093.75;;;-1.61
70415;BMP280;57837;52.064;113.478;2022-11-06T14:40:47;94099.06;;;-1.70
70415;BMP280;57837;52.064;113.478;2022-11-06T14:43:57;94095.41;;;-1.73
70415;BMP280;57837;52.064;113.478;2022-11-06T14:47:04;94095.28;;;-1.57
70415;BMP280;57837;52.064;113.478;2022-11-06T14:53:36;94099.81;;;-1.70
70415;BMP280;57837;52.064;113.478;2022-11-06T14:56:40;94095.06;;;-1.71
70415;BMP280;57837;52.064;113.478;2022-11-06T14:59:45;94101.53;;;-1.74
70415;BMP280;57837;52.064;113.478;2022-11-06T15:02:50;94096.34;;;-1.81
70415;BMP280;57837;52.064;113.478;2022-11-06T15:13:08;94105.03;;;-1.82
70415;BMP280;57837;52.064;113.478;2022-11-06T15:16:12;94107.50;;;-1.85
70415;BMP280;57837;52.064;113.478;2022-11-06T15:19:32;94097.34;;;-1.85
70415;BMP280;57837;52.064;113.478;2022-11-06T15:22:40;94102.16;;;-1.80
70415;BMP280;57837;52.064;113.478;2022-11-06T15:25:55;94098.63;;;-1.76
70415;BMP280;57837;52.064;113.478;2022-11-06T15:32:22;94094.59;;;-1.54
70415;BMP280;57837;52.064;113.478;2022-11-06T15:35:30;94095.41;;;-1.50
70415;BMP280;57837;52.064;113.478;2022-11-06T15:38:39;94102.56;;;-1.55
70415;BMP280;57837;52.064;113.478;2022-11-06T15:41:43;94098.16;;;-1.58
70415;BMP280;57837;52.064;113.478;2022-11-06T15:44:47;94097.81;;;-1.57
70415;BMP280;57837;52.064;113.478;2022-11-06T15:48:03;94090.25;;;-1.53
70415;BMP280;57837;52.064;113.478;2022-11-06T15:51:24;94090.31;;;-1.50
70415;BMP280;57837;52.064;113.478;2022-11-06T15:54:33;94087.38;;;-1.52
70415;BMP280;57837;52.064;113.478;2022-11-06T15:57:38;94088.41;;;-1.56
70415;BMP280;57837;52.064;113.478;2022-11-06T16:00:41;94093.41;;;-1.60
70415;BMP280;57837;52.064;113.478;2022-11-06T16:03:51;94087.59;;;-1.60
70415;BMP280;57837;52.064;113.478;2022-11-06T16:06:55;94089.06;;;-1.59
70415;BMP280;57837;52.064;113.478;2022-11-06T16:10:00;94094.81;;;-1.62
70415;BMP280;57837;52.064;113.478;2022-11-06T16:13:03;94073.06;;;-1.63
70415;BMP280;57837;52.064;113.478;2022-11-06T16:19:36;94077.38;;;-1.67
70415;BMP280;57837;52.064;113.478;2022-11-06T16:22:40;94082.25;;;-1.78
70415;BMP280;57837;52.064;113.478;2022-11-06T16:25:44;94071.25;;;-1.86
70415;BMP280;57837;52.064;113.478;2022-11-06T16:28:49;94074.94;;;-1.83
70415;BMP280;57837;52.064;113.478;2022-11-06T16:32:22;94071.00;;;-1.81
70415;BMP280;57837;52.064;113.478;2022-11-06T16:35:34;94072.25;;;-1.90
70415;BMP280;57837;52.064;113.478;2022-11-06T16:38:41;94075.47;;;-1.93
70415;BMP280;57837;52.064;113.478;2022-11-06T16:41:58;94078.28;;;-1.98
70415;BMP280;57837;52.064;113.478;2022-11-06T16:45:18;94070.28;;;-2.01
70415;BMP280;57837;52.064;113.478;2022-11-06T16:48:24;94063.81;;;-1.98
70415;BMP280;57837;52.064;113.478;2022-11-06T16:51:30;94064.88;;;-1.99
70415;BMP280;57837;52.064;113.478;2022-11-06T16:54:36;94055.72;;;-2.04
70415;BMP280;57837;52.064;113.478;2022-11-06T16:57:56;94052.94;;;-1.98
70415;BMP280;57837;52.064;113.478;2022-11-06T17:01:04;94052.94;;;-1.98
70415;BMP280;57837;52.064;113.478;2022-11-06T17:04:19;94051.06;;;-2.02
70415;BMP280;57837;52.064;113.478;2022-11-06T17:07:23;94046.34;;;-2.03
70415;BMP280;57837;52.064;113.478;2022-11-06T17:13:37;94039.25;;;-2.13
70415;BMP280;57837;52.064;113.478;2022-11-06T17:16:53;94037.38;;;-2.20
70415;BMP280;57837;52.064;113.478;2022-11-06T17:19:58;94043.72;;;-2.29
70415;BMP280;57837;52.064;113.478;2022-11-06T17:23:01;94046.41;;;-2.38
70415;BMP280;57837;52.064;113.478;2022-11-06T17:29:14;94039.88;;;-2.39
70415;BMP280;57837;52.064;113.478;2022-11-06T17:32:23;94037.28;;;-2.43
70415;BMP280;57837;52.064;113.478;2022-11-06T17:35:27;94036.16;;;-2.45
70415;BMP280;57837;52.064;113.478;2022-11-06T17:38:31;94031.16;;;-2.42
70415;BMP280;57837;52.064;113.478;2022-11-06T17:41:34;94035.63;;;-2.35
70415;BMP280;57837;52.064;113.478;2022-11-06T17:44:38;94027.75;;;-2.30
70415;BMP280;57837;52.064;113.478;2022-11-06T17:47:41;94018.66;;;-2.31
70415;BMP280;57837;52.064;113.478;2022-11-06T17:50:45;94017.94;;;-2.31
70415;BMP280;57837;52.064;113.478;2022-11-06T17:54:08;94026.28;;;-2.31
70415;BMP280;57837;52.064;113.478;2022-11-06T17:57:13;94021.94;;;-2.30
70415;BMP280;57837;52.064;113.478;2022-11-06T18:00:24;94005.88;;;-2.38
70415;BMP280;57837;52.064;113.478;2022-11-06T18:03:28;94000.53;;;-2.33
70415;BMP280;57837;52.064;113.478;2022-11-06T18:06:37;93993.66;;;-2.33
70415;BMP280;57837;52.064;113.478;2022-11-06T18:09:40;93992.94;;;-2.33
70415;BMP280;57837;52.064;113.478;2022-11-06T18:12:44;93997.03;;;-2.48
70415;BMP280;57837;52.064;113.478;2022-11-06T18:15:48;93988.09;;;-2.61
70415;BMP280;57837;52.064;113.478;2022-11-06T18:18:51;93991.84;;;-2.74
70415;BMP280;57837;52.064;113.478;2022-11-06T18:21:56;93984.84;;;-2.81
70415;BMP280;57837;52.064;113.478;2022-11-06T18:25:07;93981.91;;;-2.83
70415;BMP280;57837;52.064;113.478;2022-11-06T18:28:10;93981.38;;;-2.92
70415;BMP280;57837;52.064;113.478;2022-11-06T18:31:14;93980.41;;;-3.03
70415;BMP280;57837;52.064;113.478;2022-11-06T18:34:18;93970.34;;;-3.19
70415;BMP280;57837;52.064;113.478;2022-11-06T18:37:23;93961.72;;;-3.34
70415;BMP280;57837;52.064;113.478;2022-11-06T18:40:27;93959.44;;;-3.39
70415;BMP280;57837;52.064;113.478;2022-11-06T18:43:31;93950.88;;;-3.50
70415;BMP280;57837;52.064;113.478;2022-11-06T18:46:35;93962.78;;;-3.50
70415;BMP280;57837;52.064;113.478;2022-11-06T18:49:39;93960.13;;;-3.57
70415;BMP280;57837;52.064;113.478;2022-11-06T18:52:42;93965.50;;;-3.59
70415;BMP280;57837;52.064;113.478;2022-11-06T18:55:59;93958.50;;;-3.66
70415;BMP280;57837;52.064;113.478;2022-11-06T18:59:07;93958.84;;;-3.67
70415;BMP280;57837;52.064;113.478;2022-11-06T19:02:11;93950.91;;;-3.66
70415;BMP280;57837;52.064;113.478;2022-11-06T19:05:15;93956.47;;;-3.60
70415;BMP280;57837;52.064;113.478;2022-11-06T19:08:19;93958.59;;;-3.62
70415;BMP280;57837;52.064;113.478;2022-11-06T19:11:22;93949.03;;;-3.69
70415;BMP280;57837;52.064;113.478;2022-11-06T19:14:26;93962.56;;;-3.77
70415;BMP280;57837;52.064;113.478;2022-11-06T19:17:29;93961.69;;;-3.69
70415;BMP280;57837;52.064;113.478;2022-11-06T19:20:33;93955.13;;;-3.54
70415;BMP280;57837;52.064;113.478;2022-11-06T19:23:40;93954.34;;;-3.58
70415;BMP280;57837;52.064;113.478;2022-11-06T19:26:44;93950.00;;;-3.57
70415;BMP280;57837;52.064;113.478;2022-11-06T19:29:49;93950.75;;;-3.57
70415;BMP280;57837;52.064;113.478;2022-11-06T19:32:53;93945.63;;;-3.60
70415;BMP280;57837;52.064;113.478;2022-11-06T19:35:59;93950.59;;;-3.64
70415;BMP280;57837;52.064;113.478;2022-11-06T19:39:03;93952.38;;;-3.80
70415;BMP280;57837;52.064;113.478;2022-11-06T19:42:06;93947.41;;;-3.77
70415;BMP280;57837;52.064;113.478;2022-11-06T19:45:09;93947.25;;;-3.68
70415;BMP280;57837;52.064;113.478;2022-11-06T19:48:13;93940.94;;;-3.74
70415;BMP280;57837;52.064;113.478;2022-11-06T19:51:16;93947.06;;;-3.75
70415;BMP280;57837;52.064;113.478;2022-11-06T19:54:21;93942.53;;;-3.70
70415;BMP280;57837;52.064;113.478;2022-11-06T19:57:25;93932.91;;;-3.64
70415;BMP280;57837;52.064;113.478;2022-11-06T20:00:32;93941.00;;;-3.55
70415;BMP280;57837;52.064;113.478;2022-11-06T20:03:35;93935.69;;;-3.50
70415;BMP280;57837;52.064;113.478;2022-11-06T20:06:39;93930.81;;;-3.43
70415;BMP280;57837;52.064;113.478;2022-11-06T20:09:42;93934.28;;;-3.32
70415;BMP280;57837;52.064;113.478;2022-11-06T20:12:46;93925.66;;;-3.30
70415;BMP280;57837;52.064;113.478;2022-11-06T20:15:50;93939.25;;;-3.19
70415;BMP280;57837;52.064;113.478;2022-11-06T20:18:58;93931.06;;;-2.93
70415;BMP280;57837;52.064;113.478;2022-11-06T20:22:02;93934.72;;;-2.91